createdAt,value
2022-08-04T00:06:18.659Z,19.80
2022-08-04T00:09:41.582Z,19.70
2022-08-04T00:12:13.951Z,19.60
2022-08-04T00:14:49.804Z,19.50
2022-08-04T00:17:22.800Z,19.50
2022-08-04T00:19:55.232Z,19.40
2022-08-04T00:22:29.599Z,19.40
2022-08-04T00:25:04.753Z,19.40
2022-08-04T00:27:37.747Z,21.60
2022-08-04T00:30:08.526Z,18.00
2022-08-04T00:32:37.368Z,19.40
2022-08-04T00:35:09.487Z,21.40
2022-08-04T00:37:39.935Z,19.40
2022-08-04T00:40:26.233Z,23.10
2022-08-04T00:43:14.591Z,19.40
2022-08-04T00:46:16.655Z,19.70
2022-08-04T00:49:00.704Z,19.20
2022-08-04T00:51:47.968Z,20.80
2022-08-04T00:54:47.969Z,19.20
2022-08-04T00:57:34.594Z,19.10
2022-08-04T01:00:13.515Z,21.00
2022-08-04T01:02:59.629Z,19.00
2022-08-04T01:05:39.096Z,19.10
2022-08-04T01:08:20.167Z,19.50
2022-08-04T01:11:05.134Z,19.00
2022-08-04T01:13:57.937Z,19.00
2022-08-04T01:16:28.914Z,18.90
2022-08-04T01:19:01.636Z,18.80
2022-08-04T01:22:04.020Z,18.80
2022-08-04T01:24:56.712Z,18.70
2022-08-04T01:31:22.334Z,18.70
2022-08-04T01:37:46.460Z,18.60
2022-08-04T01:47:54.538Z,18.50
2022-08-04T01:54:12.262Z,18.60
2022-08-04T01:56:43.094Z,18.60
2022-08-04T02:02:56.959Z,17.10
2022-08-04T02:09:20.332Z,18.40
2022-08-04T02:12:00.086Z,18.40
2022-08-04T02:18:25.867Z,18.40
2022-08-04T02:24:50.864Z,18.40
2022-08-04T02:27:25.516Z,18.40
2022-08-04T02:30:00.410Z,18.30
2022-08-04T02:32:40.354Z,18.30
2022-08-04T02:39:02.361Z,18.30
2022-08-04T02:42:23.327Z,18.30
2022-08-04T02:45:00.553Z,18.30
2022-08-04T02:48:30.697Z,19.90
2022-08-04T02:50:29.153Z,18.20
2022-08-04T02:53:04.387Z,18.10
2022-08-04T02:55:50.922Z,18.10
2022-08-04T02:58:22.471Z,15.90
2022-08-04T03:00:53.729Z,18.10
2022-08-04T03:07:50.656Z,18.10
2022-08-04T03:14:38.928Z,17.90
2022-08-04T03:17:53.615Z,17.90
2022-08-04T03:20:53.133Z,17.90
2022-08-04T03:23:43.600Z,17.80
2022-08-04T03:26:27.899Z,17.80
2022-08-04T03:37:01.302Z,17.80
2022-08-04T03:43:57.999Z,17.80
2022-08-04T03:54:40.397Z,17.60
2022-08-04T04:01:11.090Z,17.70
2022-08-04T04:04:00.058Z,17.60
2022-08-04T04:07:00.917Z,17.60
2022-08-04T04:10:09.340Z,17.50
2022-08-04T04:13:15.652Z,15.60
2022-08-04T04:16:11.593Z,17.50
2022-08-04T04:22:38.451Z,17.50
2022-08-04T04:25:20.163Z,17.50
2022-08-04T04:28:44.365Z,17.50
2022-08-04T04:34:59.146Z,17.50
2022-08-04T04:38:09.257Z,19.20
2022-08-04T04:48:28.190Z,17.40
2022-08-04T04:54:55.146Z,17.50
2022-08-04T04:57:54.627Z,17.50
2022-08-04T05:00:20.091Z,17.50
2022-08-04T05:03:23.602Z,17.50
2022-08-04T05:10:00.485Z,17.80
2022-08-04T05:14:22.777Z,17.80
2022-08-04T05:15:36.511Z,18.30
2022-08-04T05:18:07.814Z,17.90
2022-08-04T05:20:43.172Z,17.90
2022-08-04T05:23:17.426Z,18.00
2022-08-04T05:25:58.852Z,18.10
2022-08-04T05:28:34.513Z,21.00
2022-08-04T05:31:13.796Z,21.10
2022-08-04T05:38:23.472Z,18.70
2022-08-04T05:44:47.599Z,19.10
2022-08-04T05:47:20.638Z,19.30
2022-08-04T05:50:01.406Z,19.40
2022-08-04T05:52:32.228Z,19.50
2022-08-04T05:55:01.845Z,23.60
2022-08-04T05:57:31.830Z,21.40
2022-08-04T06:00:25.160Z,20.00
2022-08-04T06:06:41.527Z,20.30
2022-08-04T06:09:12.219Z,19.70
2022-08-04T06:12:01.937Z,20.40
2022-08-04T06:14:44.028Z,23.90
2022-08-04T06:19:57.035Z,20.80
2022-08-04T06:20:18.245Z,23.00
2022-08-04T06:22:54.729Z,20.90
2022-08-04T06:29:18.011Z,21.30
2022-08-04T06:32:27.000Z,21.40
2022-08-04T06:34:50.667Z,21.50
2022-08-04T06:37:41.179Z,21.80
2022-08-04T06:40:29.666Z,21.70
2022-08-04T06:46:43.567Z,22.00
2022-08-04T06:49:15.426Z,22.10
2022-08-04T06:51:56.144Z,23.70
2022-08-04T06:58:14.049Z,22.50
2022-08-04T07:04:31.195Z,22.70
2022-08-04T07:07:04.694Z,23.40
2022-08-04T07:09:37.806Z,24.60
2022-08-04T07:12:07.803Z,24.30
2022-08-04T07:14:38.209Z,23.30
2022-08-04T07:17:08.193Z,23.40
2022-08-04T07:19:37.744Z,23.50
2022-08-04T07:23:06.245Z,26.10
2022-08-04T07:25:58.998Z,23.70
2022-08-04T07:28:28.162Z,23.80
2022-08-04T07:30:57.567Z,26.10
2022-08-04T07:33:26.610Z,24.10
2022-08-04T07:36:09.699Z,24.20
2022-08-04T07:38:50.834Z,25.90
2022-08-04T07:41:44.156Z,27.00
2022-08-04T07:44:16.723Z,24.90
2022-08-04T07:46:47.626Z,27.40
2022-08-04T07:49:55.000Z,25.80
2022-08-04T07:55:54.092Z,25.00
2022-08-04T07:58:26.529Z,25.40
2022-08-04T08:04:45.457Z,25.40
2022-08-04T08:11:02.311Z,25.80
2022-08-04T08:17:17.044Z,26.10
2022-08-04T08:19:45.586Z,26.70
2022-08-04T08:22:14.648Z,26.40
2022-08-04T08:24:44.112Z,26.60
2022-08-04T08:27:13.362Z,26.70
2022-08-04T08:29:45.422Z,26.70
2022-08-04T08:32:22.030Z,29.50
2022-08-04T08:34:50.916Z,26.70
2022-08-04T08:37:27.728Z,26.80
2022-08-04T08:40:17.013Z,27.00
2022-08-04T08:44:04.481Z,27.20
2022-08-04T08:46:48.586Z,28.30
2022-08-04T08:50:01.048Z,27.70
2022-08-04T08:56:35.100Z,27.80
2022-08-04T09:07:28.107Z,28.60
2022-08-04T09:13:53.493Z,28.60
2022-08-04T09:24:35.633Z,28.50
2022-08-04T09:31:00.741Z,28.80
2022-08-04T09:37:34.494Z,29.70
2022-08-04T09:44:49.831Z,30.00
2022-08-04T09:50:59.055Z,29.90
2022-08-04T09:53:48.320Z,30.20
2022-08-04T09:56:24.826Z,30.60
2022-08-04T10:02:38.432Z,30.50
2022-08-04T10:05:15.259Z,30.50
2022-08-04T10:11:55.404Z,30.70
2022-08-04T10:18:25.238Z,30.60
2022-08-04T10:21:08.928Z,30.60
2022-08-04T10:23:55.133Z,30.70
2022-08-04T10:26:42.640Z,30.80
2022-08-04T10:29:15.337Z,31.10
2022-08-04T10:31:47.737Z,32.80
2022-08-04T10:38:06.161Z,31.30
2022-08-04T10:44:42.152Z,31.20
2022-08-04T10:54:53.568Z,31.50
2022-08-04T11:01:59.723Z,31.60
2022-08-04T11:04:10.978Z,31.70
2022-08-04T11:10:30.225Z,31.20
2022-08-04T11:13:06.219Z,31.40
2022-08-04T11:15:40.474Z,31.80
2022-08-04T11:22:06.227Z,32.40
2022-08-04T11:28:23.845Z,32.70
2022-08-04T11:30:58.256Z,32.80
2022-08-04T11:33:36.677Z,32.90
2022-08-04T11:36:15.618Z,33.10
2022-08-04T11:38:54.487Z,33.00
2022-08-04T11:41:31.954Z,33.10
2022-08-04T11:47:50.931Z,33.90
2022-08-04T11:50:29.668Z,33.90
2022-08-04T11:52:59.463Z,33.50
2022-08-04T11:55:30.241Z,33.40
2022-08-04T12:01:52.030Z,33.50
2022-08-04T12:04:31.225Z,33.60
2022-08-04T12:10:03.207Z,33.80
2022-08-04T12:12:41.032Z,33.70
2022-08-04T12:15:21.668Z,33.50
2022-08-04T12:18:27.436Z,33.40
2022-08-04T12:24:48.362Z,33.80
2022-08-04T12:27:26.067Z,33.90
2022-08-04T12:31:00.105Z,33.90
2022-08-04T12:36:41.857Z,33.80
2022-08-04T12:39:14.128Z,34.30
2022-08-04T12:41:58.495Z,34.50
2022-08-04T12:44:37.607Z,34.50
2022-08-04T12:47:25.899Z,34.30
2022-08-04T12:50:02.092Z,33.90
2022-08-04T12:56:33.070Z,33.60
2022-08-04T13:02:47.586Z,33.70
2022-08-04T13:05:17.504Z,32.70
2022-08-04T13:07:52.591Z,33.50
2022-08-04T13:14:26.536Z,33.40
2022-08-04T13:20:46.003Z,34.40
2022-08-04T13:23:21.540Z,34.60
2022-08-04T13:29:59.337Z,35.00
2022-08-04T13:32:30.827Z,34.90
2022-08-04T13:35:04.767Z,34.80
2022-08-04T13:37:38.937Z,35.10
2022-08-04T13:40:10.875Z,35.20
2022-08-04T13:42:41.136Z,35.00
2022-08-04T13:49:54.540Z,34.20
2022-08-04T13:56:17.800Z,35.00
2022-08-04T13:58:48.718Z,35.10
2022-08-04T14:05:18.530Z,35.40
2022-08-04T14:12:10.892Z,35.80
2022-08-04T14:14:48.329Z,35.30
2022-08-04T14:17:20.786Z,35.30
2022-08-04T14:19:52.773Z,35.40
2022-08-04T14:22:36.574Z,35.70
2022-08-04T14:25:09.364Z,36.00
2022-08-04T14:27:54.157Z,36.10
2022-08-04T14:30:25.209Z,35.70
2022-08-04T14:32:58.912Z,35.60
2022-08-04T14:36:04.520Z,35.50
2022-08-04T14:42:23.944Z,36.00
2022-08-04T14:45:32.005Z,35.70
2022-08-04T14:48:04.241Z,35.70
2022-08-04T14:50:38.444Z,35.60
2022-08-04T15:03:25.028Z,35.80
2022-08-04T15:09:41.163Z,35.70
2022-08-04T15:13:13.156Z,35.70
2022-08-04T15:15:43.303Z,35.80
2022-08-04T15:22:52.803Z,35.60
2022-08-04T15:25:28.127Z,35.60
2022-08-04T15:27:58.031Z,35.80
2022-08-04T15:30:27.967Z,35.80
2022-08-04T15:33:01.651Z,35.70
2022-08-04T15:35:39.076Z,35.80
2022-08-04T15:38:15.430Z,35.90
2022-08-04T15:40:49.761Z,35.80
2022-08-04T15:43:39.327Z,35.90
2022-08-04T15:46:42.567Z,35.80
2022-08-04T15:49:19.874Z,35.30
2022-08-04T15:51:48.618Z,34.90
2022-08-04T15:58:51.454Z,34.60
2022-08-04T16:05:25.143Z,34.90
2022-08-04T16:08:00.240Z,34.70
2022-08-04T16:10:39.426Z,34.80
2022-08-04T16:13:09.242Z,34.80
2022-08-04T16:15:48.565Z,34.60
2022-08-04T16:18:26.584Z,34.60
2022-08-04T16:20:58.509Z,34.40
2022-08-04T16:24:02.249Z,34.40
2022-08-04T16:26:55.122Z,34.30
2022-08-04T16:29:36.305Z,34.30
2022-08-04T16:32:21.630Z,34.10
2022-08-04T16:34:56.358Z,34.00
2022-08-04T16:41:13.626Z,33.60
2022-08-04T16:43:41.792Z,33.40
2022-08-04T16:50:05.949Z,33.50
2022-08-04T16:53:52.484Z,33.60
2022-08-04T16:56:15.514Z,33.50
2022-08-04T17:02:26.727Z,33.50
2022-08-04T17:05:06.984Z,33.50
2022-08-04T17:08:07.260Z,33.40
2022-08-04T17:10:42.096Z,33.20
2022-08-04T17:14:02.333Z,33.00
2022-08-04T17:16:17.989Z,33.10
2022-08-04T17:19:02.114Z,33.10
2022-08-04T17:25:19.273Z,33.00
2022-08-04T17:28:20.169Z,32.90
2022-08-04T17:30:57.191Z,32.80
2022-08-04T17:37:37.997Z,32.70
2022-08-04T17:40:11.587Z,32.70
2022-08-04T17:42:42.316Z,32.60
2022-08-04T17:48:03.979Z,32.30
2022-08-04T17:50:35.889Z,32.10
2022-08-04T17:53:12.004Z,31.90
2022-08-04T17:55:46.945Z,32.40
2022-08-04T17:58:21.105Z,31.80
2022-08-04T18:00:51.208Z,31.80
2022-08-04T18:03:29.862Z,31.80
2022-08-04T18:06:03.389Z,31.70
2022-08-04T18:08:39.779Z,31.60
2022-08-04T18:15:47.004Z,31.30
2022-08-04T18:18:23.913Z,31.20
2022-08-04T18:21:08.393Z,31.00
2022-08-04T18:27:26.578Z,30.80
2022-08-04T18:33:42.279Z,30.50
2022-08-04T18:36:35.532Z,30.20
2022-08-04T18:40:25.025Z,30.00
2022-08-04T18:46:27.042Z,29.60
2022-08-04T18:53:10.355Z,29.20
2022-08-04T18:55:56.981Z,29.00
2022-08-04T18:58:27.410Z,28.90
2022-08-04T19:01:00.562Z,28.00
2022-08-04T19:03:33.275Z,29.00
2022-08-04T19:06:02.755Z,28.40
2022-08-04T19:08:35.488Z,28.20
2022-08-04T19:15:09.020Z,28.10
2022-08-04T19:21:59.277Z,27.70
2022-08-04T19:28:06.541Z,27.50
2022-08-04T19:34:34.792Z,27.40
2022-08-04T19:40:52.820Z,27.10
2022-08-04T19:43:23.149Z,27.00
2022-08-04T19:45:51.631Z,28.20
2022-08-04T19:48:23.048Z,26.80
2022-08-04T19:50:54.720Z,27.70
2022-08-04T19:53:36.995Z,26.60
2022-08-04T19:56:06.674Z,26.60
2022-08-04T19:58:38.976Z,26.60
2022-08-04T20:04:09.049Z,26.80
2022-08-04T20:06:39.886Z,26.40
2022-08-04T20:09:25.618Z,28.70
2022-08-04T20:11:56.678Z,26.20
2022-08-04T20:14:32.090Z,26.10
2022-08-04T20:17:02.865Z,26.10
2022-08-04T20:19:31.345Z,26.90
2022-08-04T20:22:02.595Z,26.00
2022-08-04T20:24:38.072Z,28.60
2022-08-04T20:27:15.628Z,28.00
2022-08-04T20:37:06.997Z,25.70
2022-08-04T20:43:25.989Z,25.50
2022-08-04T20:45:56.356Z,26.90
2022-08-04T20:48:29.714Z,25.40
2022-08-04T20:51:01.975Z,27.50
2022-08-04T20:53:52.697Z,25.20
2022-08-04T20:56:30.471Z,25.10
2022-08-04T21:02:46.892Z,25.00
2022-08-04T21:12:51.089Z,24.90
2022-08-04T21:15:25.140Z,24.80
2022-08-04T21:17:56.541Z,24.70
2022-08-04T21:20:27.566Z,26.20
2022-08-04T21:23:04.903Z,24.50
2022-08-04T21:25:42.582Z,26.40
2022-08-04T21:32:02.780Z,24.40
2022-08-04T21:34:39.191Z,24.30
2022-08-04T21:40:53.675Z,24.00
2022-08-04T21:43:27.415Z,24.00
2022-08-04T21:46:04.608Z,23.90
2022-08-04T21:51:58.657Z,23.90
2022-08-04T21:54:04.123Z,23.80
2022-08-04T21:56:33.967Z,23.70
2022-08-04T22:02:53.352Z,23.70
2022-08-04T22:05:24.518Z,23.60
2022-08-04T22:07:52.949Z,23.50
2022-08-04T22:10:32.174Z,25.20
2022-08-04T22:13:07.015Z,21.90
2022-08-04T22:16:03.728Z,23.40
2022-08-04T22:18:24.649Z,23.30
2022-08-04T22:27:36.597Z,23.10
2022-08-04T22:30:13.447Z,23.00
2022-08-04T22:36:28.900Z,22.80
2022-08-04T22:42:19.376Z,22.70
2022-08-04T22:48:36.358Z,22.70
2022-08-04T22:51:06.305Z,22.70
2022-08-04T22:56:10.744Z,22.60
2022-08-04T22:58:50.278Z,22.60
2022-08-04T23:01:20.339Z,22.60
2022-08-04T23:03:56.215Z,24.20
2022-08-04T23:06:38.093Z,22.50
2022-08-04T23:09:08.264Z,23.30
2022-08-04T23:11:45.816Z,22.50
2022-08-04T23:14:18.675Z,22.50
2022-08-04T23:20:32.830Z,22.50
2022-08-04T23:27:04.767Z,22.40
2022-08-04T23:29:52.649Z,23.90
2022-08-04T23:32:22.293Z,24.00
2022-08-04T23:34:51.250Z,22.40
2022-08-04T23:37:20.042Z,22.60
2022-08-04T23:40:18.050Z,24.10
2022-08-04T23:42:39.376Z,25.60
2022-08-04T23:49:00.009Z,22.60
2022-08-04T23:51:29.108Z,23.00
2022-08-04T23:54:03.724Z,22.60
2022-08-04T23:56:33.057Z,22.60
2022-08-04T23:59:04.856Z,22.50
